Aérodrome :
LOGIN :

S'inscrire | Disclaimer

   EN    FR    IT 

 










Légende :    VFR   VFR Marginal   IFR   IFR Intensif   IFR Très Intensif
Visi : 
Plafond : 
>= 8 km
>= 3000ft
5 à 8 km
1000 à 3000 ft
1500m à 5 km
500 à 1000 ft
800 à 1500m
200 à 500 ft
< 800m
< 200 ft
Symboles :   Orages  Brouillard  Fortes neiges  Fortes précipitations  Vent > 20 kt
SIGMETs :   Divers  Orages  Givrage  Turbulence  Onde Orograph.  Cendres Volcan.







- Altitude de l'aérodrome : 622 ft
- Code IATA : BRS
- Voir les cartes d'approche


EGGD - Bristol Int.

DERNIER METAR :
  • 191950Z 16012KT 9999 8000E -RA SCT008 BKN015 13/12 Q0995 RERA

METARs EXPIRÉS :
  • 191920Z 16019G31KT 9999 SCT007 BKN028 13/13 Q0995 REDZ
  • 191850Z 14020G31KT 8000 -RA DZ BKN007 13/13 Q0994
  • 191820Z 14019KT 9999 7000SE -RADZ BKN007 12/12 Q0995 RERA REDZ
  • 191750Z 14019KT 6000 RADZ BKN008 13/12 Q0996 RERA REDZ
  • 191720Z 13016KT 7000 -RA BKN011 BKN025 13/12 Q0996

TAF COR TAF EGGD
Valide du 19 à 18h jusqu'au 20 à 18h UTC


191726Z 1918/2018 15012KT 9999 SCT005 BKN015
TEMPO 1918/1920 15015G25KT 6000 RA BKN008
PROB30
TEMPO 1918/1920 3000 +RA BKN004
TEMPO 1920/1922 15015G25KT
BECMG 1922/2001 24012KT BKN008
TEMPO 1923/2010 3000 RADZ BKN004
TEMPO 2000/2010 25021G33KT
TEMPO 2010/2012 25015G25KT
BECMG 2011/2014 SCT030
BECMG 2015/2018 16014KT
ATIS : +44 1275 473 666
Pas de NOTAMs connus pour ce terrain.
2 SIGMETs publiés pour la FIR London (EGTT) :
 
Turbulence forte
EGTT SIGMET 03 VALID 192020/192330 EGRR
EGTT LONDON FIR SEV TURB FCST WI N5149 W00608 - N5024 W00401 - N5034 W00229 - N5000 W00200 - N4919 W00538 - N5053 W00720 - N5149 W00608 SFC/FL060 MOV E 20KT NC=
Turbulence forte
EGTT SIGMET 02 VALID 191720/192020 EGRR
EGTT LONDON FIR SEV TURB FCST WI N5210 W00549 - N4946 W00315 - N4909 W00623 - N5100 W00800 - N5210 W00549 SFC/FL060 MOV E 20KT WKN=



MET'MAP, la Météo Aéronautique d'un coup d'oeil ! - Copyright ORBIFLY Décembre 2007 - Disclaimer

ORBIFLY MET'MAP TEAM :

Programmation & Développement : Alexandra Zaïnal
Conception & Développement : Baudouin d'Aumeries
Co-Programmation & Développement : Marc-Olivier Méhu
Soutien technique & logistique : Manuel Goepfert

Contact : metmap@orbifly.com




SOURCES & CREDITS :

   NOAA